sensor_id;sensor_type;location;lat;lon;timestamp;P1;durP1;ratioP1;P2;durP2;ratioP2
24799;SDS011;12897;50.812;4.430;2023-07-13T06:14:49;23.80;;;4.10;;
24799;SDS011;12897;50.812;4.430;2023-07-13T06:17:16;20.52;;;4.65;;
24799;SDS011;12897;50.812;4.430;2023-07-13T06:19:44;19.17;;;3.95;;
24799;SDS011;12897;50.812;4.430;2023-07-13T06:22:12;24.67;;;4.33;;
24799;SDS011;12897;50.812;4.430;2023-07-13T06:24:40;18.50;;;3.90;;
24799;SDS011;12897;50.812;4.430;2023-07-13T06:27:09;18.17;;;4.08;;
24799;SDS011;12897;50.812;4.430;2023-07-13T06:29:36;20.90;;;4.17;;
24799;SDS011;12897;50.812;4.430;2023-07-13T06:32:05;15.68;;;3.95;;
24799;SDS011;12897;50.812;4.430;2023-07-13T06:34:33;22.22;;;3.67;;
24799;SDS011;12897;50.812;4.430;2023-07-13T06:37:01;18.67;;;3.72;;
24799;SDS011;12897;50.812;4.430;2023-07-13T06:39:28;21.30;;;4.42;;
24799;SDS011;12897;50.812;4.430;2023-07-13T06:41:56;13.95;;;3.77;;
24799;SDS011;12897;50.812;4.430;2023-07-13T06:44:24;25.00;;;5.58;;
24799;SDS011;12897;50.812;4.430;2023-07-13T06:46:53;18.92;;;4.03;;
24799;SDS011;12897;50.812;4.430;2023-07-13T06:49:21;16.57;;;4.53;;
24799;SDS011;12897;50.812;4.430;2023-07-13T06:51:55;17.50;;;4.40;;
24799;SDS011;12897;50.812;4.430;2023-07-13T06:54:22;18.30;;;4.55;;
24799;SDS011;12897;50.812;4.430;2023-07-13T06:56:50;19.73;;;3.90;;
24799;SDS011;12897;50.812;4.430;2023-07-13T06:59:18;16.62;;;4.00;;
24799;SDS011;12897;50.812;4.430;2023-07-13T07:01:46;23.55;;;4.12;;
24799;SDS011;12897;50.812;4.430;2023-07-13T07:04:13;14.98;;;3.92;;
24799;SDS011;12897;50.812;4.430;2023-07-13T07:06:41;18.45;;;4.12;;
24799;SDS011;12897;50.812;4.430;2023-07-13T07:09:08;16.05;;;4.47;;
24799;SDS011;12897;50.812;4.430;2023-07-13T07:11:36;16.23;;;3.83;;
24799;SDS011;12897;50.812;4.430;2023-07-13T07:14:03;13.38;;;4.03;;
24799;SDS011;12897;50.812;4.430;2023-07-13T07:16:31;26.00;;;4.70;;
24799;SDS011;12897;50.812;4.430;2023-07-13T07:19:00;20.97;;;4.12;;
24799;SDS011;12897;50.812;4.430;2023-07-13T07:21:28;21.00;;;4.40;;
24799;SDS011;12897;50.812;4.430;2023-07-13T07:23:58;18.50;;;5.12;;
24799;SDS011;12897;50.812;4.430;2023-07-13T07:26:25;12.95;;;3.47;;
24799;SDS011;12897;50.812;4.430;2023-07-13T07:28:53;15.78;;;3.42;;
24799;SDS011;12897;50.812;4.430;2023-07-13T07:31:21;14.60;;;3.98;;
24799;SDS011;12897;50.812;4.430;2023-07-13T07:33:49;17.35;;;4.17;;
24799;SDS011;12897;50.812;4.430;2023-07-13T07:36:16;16.75;;;3.10;;
24799;SDS011;12897;50.812;4.430;2023-07-13T07:38:44;14.35;;;3.62;;
24799;SDS011;12897;50.812;4.430;2023-07-13T07:41:14;19.00;;;4.08;;
24799;SDS011;12897;50.812;4.430;2023-07-13T07:43:42;16.37;;;3.80;;
24799;SDS011;12897;50.812;4.430;2023-07-13T07:46:09;16.48;;;4.35;;
24799;SDS011;12897;50.812;4.430;2023-07-13T07:48:37;15.53;;;3.87;;
24799;SDS011;12897;50.812;4.430;2023-07-13T07:51:05;17.70;;;3.72;;
24799;SDS011;12897;50.812;4.430;2023-07-13T07:53:32;17.25;;;4.03;;
24799;SDS011;12897;50.812;4.430;2023-07-13T07:56:01;15.48;;;3.92;;
24799;SDS011;12897;50.812;4.430;2023-07-13T07:58:28;14.23;;;3.27;;
24799;SDS011;12897;50.812;4.430;2023-07-13T08:01:01;25.25;;;4.37;;
24799;SDS011;12897;50.812;4.430;2023-07-13T08:03:34;19.45;;;3.65;;
24799;SDS011;12897;50.812;4.430;2023-07-13T08:06:02;22.58;;;4.22;;
24799;SDS011;12897;50.812;4.430;2023-07-13T08:08:29;20.30;;;3.65;;
24799;SDS011;12897;50.812;4.430;2023-07-13T08:10:57;15.30;;;3.52;;
24799;SDS011;12897;50.812;4.430;2023-07-13T08:13:26;16.52;;;4.97;;
24799;SDS011;12897;50.812;4.430;2023-07-13T08:15:55;13.75;;;3.12;;
24799;SDS011;12897;50.812;4.430;2023-07-13T08:18:22;14.65;;;3.60;;
24799;SDS011;12897;50.812;4.430;2023-07-13T08:20:50;14.65;;;3.10;;
24799;SDS011;12897;50.812;4.430;2023-07-13T08:23:17;18.50;;;3.65;;
24799;SDS011;12897;50.812;4.430;2023-07-13T08:25:50;21.37;;;3.58;;
24799;SDS011;12897;50.812;4.430;2023-07-13T08:28:21;16.75;;;3.70;;
24799;SDS011;12897;50.812;4.430;2023-07-13T08:30:50;15.78;;;2.98;;
24799;SDS011;12897;50.812;4.430;2023-07-13T08:33:19;14.05;;;3.50;;
24799;SDS011;12897;50.812;4.430;2023-07-13T08:35:52;16.67;;;3.67;;
24799;SDS011;12897;50.812;4.430;2023-07-13T08:38:20;16.45;;;3.45;;
24799;SDS011;12897;50.812;4.430;2023-07-13T08:40:54;15.63;;;2.90;;
24799;SDS011;12897;50.812;4.430;2023-07-13T08:43:25;15.55;;;3.22;;
24799;SDS011;12897;50.812;4.430;2023-07-13T08:45:56;13.38;;;2.92;;
24799;SDS011;12897;50.812;4.430;2023-07-13T08:48:26;17.25;;;3.90;;
24799;SDS011;12897;50.812;4.430;2023-07-13T08:50:56;15.65;;;3.20;;
24799;SDS011;12897;50.812;4.430;2023-07-13T08:53:54;16.50;;;3.02;;
24799;SDS011;12897;50.812;4.430;2023-07-13T08:56:22;12.78;;;3.35;;
24799;SDS011;12897;50.812;4.430;2023-07-13T08:58:56;12.90;;;3.08;;
24799;SDS011;12897;50.812;4.430;2023-07-13T09:01:47;16.57;;;3.05;;
24799;SDS011;12897;50.812;4.430;2023-07-13T09:04:15;10.45;;;3.12;;
24799;SDS011;12897;50.812;4.430;2023-07-13T09:06:55;21.15;;;3.80;;
24799;SDS011;12897;50.812;4.430;2023-07-13T09:09:32;10.32;;;3.12;;
24799;SDS011;12897;50.812;4.430;2023-07-13T09:12:13;16.17;;;3.62;;
24799;SDS011;12897;50.812;4.430;2023-07-13T09:14:42;13.40;;;3.40;;
24799;SDS011;12897;50.812;4.430;2023-07-13T09:17:18;14.78;;;3.15;;
24799;SDS011;12897;50.812;4.430;2023-07-13T09:19:56;11.70;;;3.02;;
24799;SDS011;12897;50.812;4.430;2023-07-13T09:22:24;12.55;;;3.20;;
24799;SDS011;12897;50.812;4.430;2023-07-13T09:27:34;15.15;;;4.97;;
24799;SDS011;12897;50.812;4.430;2023-07-13T09:30:07;16.10;;;3.72;;
24799;SDS011;12897;50.812;4.430;2023-07-13T09:32:32;13.72;;;3.58;;
24799;SDS011;12897;50.812;4.430;2023-07-13T09:35:00;15.32;;;3.37;;
24799;SDS011;12897;50.812;4.430;2023-07-13T09:37:39;13.30;;;3.00;;
24799;SDS011;12897;50.812;4.430;2023-07-13T09:40:01;13.30;;;2.90;;
24799;SDS011;12897;50.812;4.430;2023-07-13T09:42:30;14.23;;;3.55;;
24799;SDS011;12897;50.812;4.430;2023-07-13T09:45:00;10.13;;;2.80;;
24799;SDS011;12897;50.812;4.430;2023-07-13T09:47:29;12.68;;;2.98;;
24799;SDS011;12897;50.812;4.430;2023-07-13T09:50:03;11.03;;;2.83;;
24799;SDS011;12897;50.812;4.430;2023-07-13T09:52:43;17.00;;;3.30;;
24799;SDS011;12897;50.812;4.430;2023-07-13T09:55:33;11.00;;;2.87;;
24799;SDS011;12897;50.812;4.430;2023-07-13T09:58:06;13.00;;;3.02;;
24799;SDS011;12897;50.812;4.430;2023-07-13T10:00:37;8.90;;;2.30;;
24799;SDS011;12897;50.812;4.430;2023-07-13T10:05:44;10.10;;;2.52;;
24799;SDS011;12897;50.812;4.430;2023-07-13T10:08:18;10.48;;;2.77;;
24799;SDS011;12897;50.812;4.430;2023-07-13T10:10:38;9.25;;;2.45;;
24799;SDS011;12897;50.812;4.430;2023-07-13T10:13:19;14.18;;;2.72;;
24799;SDS011;12897;50.812;4.430;2023-07-13T10:18:23;12.25;;;3.20;;
24799;SDS011;12897;50.812;4.430;2023-07-13T10:21:04;14.30;;;2.75;;
24799;SDS011;12897;50.812;4.430;2023-07-13T10:23:30;9.70;;;3.05;;
24799;SDS011;12897;50.812;4.430;2023-07-13T10:25:58;7.17;;;2.45;;
24799;SDS011;12897;50.812;4.430;2023-07-13T10:28:33;14.07;;;2.90;;
24799;SDS011;12897;50.812;4.430;2023-07-13T10:31:02;10.13;;;2.27;;
24799;SDS011;12897;50.812;4.430;2023-07-13T10:33:32;10.75;;;2.50;;
24799;SDS011;12897;50.812;4.430;2023-07-13T10:36:03;11.85;;;2.62;;
24799;SDS011;12897;50.812;4.430;2023-07-13T10:38:53;10.65;;;2.72;;
24799;SDS011;12897;50.812;4.430;2023-07-13T10:41:29;7.08;;;2.83;;
24799;SDS011;12897;50.812;4.430;2023-07-13T10:43:58;7.70;;;2.72;;
24799;SDS011;12897;50.812;4.430;2023-07-13T10:46:31;8.63;;;2.35;;
24799;SDS011;12897;50.812;4.430;2023-07-13T10:48:59;11.48;;;2.35;;
24799;SDS011;12897;50.812;4.430;2023-07-13T10:51:33;13.20;;;2.80;;
24799;SDS011;12897;50.812;4.430;2023-07-13T10:54:14;10.32;;;2.72;;
24799;SDS011;12897;50.812;4.430;2023-07-13T10:56:52;9.48;;;2.42;;
24799;SDS011;12897;50.812;4.430;2023-07-13T10:59:35;7.45;;;2.08;;
24799;SDS011;12897;50.812;4.430;2023-07-13T11:04:56;11.18;;;3.22;;
24799;SDS011;12897;50.812;4.430;2023-07-13T11:07:27;11.93;;;2.75;;
24799;SDS011;12897;50.812;4.430;2023-07-13T11:10:06;5.03;;;1.98;;
24799;SDS011;12897;50.812;4.430;2023-07-13T11:15:44;7.80;;;2.45;;
24799;SDS011;12897;50.812;4.430;2023-07-13T11:18:04;8.98;;;2.35;;
24799;SDS011;12897;50.812;4.430;2023-07-13T11:20:36;8.65;;;2.62;;
24799;SDS011;12897;50.812;4.430;2023-07-13T11:23:09;10.28;;;3.00;;
24799;SDS011;12897;50.812;4.430;2023-07-13T11:25:44;8.08;;;2.40;;
24799;SDS011;12897;50.812;4.430;2023-07-13T11:28:17;9.00;;;2.25;;
24799;SDS011;12897;50.812;4.430;2023-07-13T11:39:01;6.72;;;2.27;;
24799;SDS011;12897;50.812;4.430;2023-07-13T11:41:43;8.45;;;2.25;;
24799;SDS011;12897;50.812;4.430;2023-07-13T11:44:16;8.38;;;2.37;;
24799;SDS011;12897;50.812;4.430;2023-07-13T11:46:53;11.05;;;2.12;;
24799;SDS011;12897;50.812;4.430;2023-07-13T11:49:22;9.25;;;2.40;;
24799;SDS011;12897;50.812;4.430;2023-07-13T11:51:55;10.48;;;2.95;;
24799;SDS011;12897;50.812;4.430;2023-07-13T11:54:26;8.10;;;2.35;;
24799;SDS011;12897;50.812;4.430;2023-07-13T11:56:55;5.85;;;2.47;;
24799;SDS011;12897;50.812;4.430;2023-07-13T11:59:37;5.55;;;2.10;;
24799;SDS011;12897;50.812;4.430;2023-07-13T12:02:15;5.80;;;2.10;;
24799;SDS011;12897;50.812;4.430;2023-07-13T12:04:42;8.45;;;1.98;;
24799;SDS011;12897;50.812;4.430;2023-07-13T12:07:15;14.23;;;2.17;;
24799;SDS011;12897;50.812;4.430;2023-07-13T12:09:48;8.23;;;2.15;;
24799;SDS011;12897;50.812;4.430;2023-07-13T12:12:19;7.08;;;2.45;;
24799;SDS011;12897;50.812;4.430;2023-07-13T12:14:52;8.38;;;2.25;;
24799;SDS011;12897;50.812;4.430;2023-07-13T12:17:25;8.85;;;2.17;;
24799;SDS011;12897;50.812;4.430;2023-07-13T12:22:21;8.70;;;2.22;;
24799;SDS011;12897;50.812;4.430;2023-07-13T12:24:49;9.95;;;2.10;;
24799;SDS011;12897;50.812;4.430;2023-07-13T12:27:23;6.92;;;2.00;;
24799;SDS011;12897;50.812;4.430;2023-07-13T12:29:52;8.55;;;1.77;;
24799;SDS011;12897;50.812;4.430;2023-07-13T12:32:27;9.38;;;2.35;;
24799;SDS011;12897;50.812;4.430;2023-07-13T12:35:13;3.15;;;2.05;;
24799;SDS011;12897;50.812;4.430;2023-07-13T12:37:43;7.67;;;2.25;;
24799;SDS011;12897;50.812;4.430;2023-07-13T12:40:20;5.90;;;2.02;;
24799;SDS011;12897;50.812;4.430;2023-07-13T12:42:49;15.45;;;2.52;;
24799;SDS011;12897;50.812;4.430;2023-07-13T12:45:25;5.30;;;2.20;;
24799;SDS011;12897;50.812;4.430;2023-07-13T12:47:56;4.95;;;2.37;;
24799;SDS011;12897;50.812;4.430;2023-07-13T12:50:30;10.78;;;2.30;;
24799;SDS011;12897;50.812;4.430;2023-07-13T12:53:03;6.58;;;2.30;;
24799;SDS011;12897;50.812;4.430;2023-07-13T12:55:40;12.20;;;3.17;;
24799;SDS011;12897;50.812;4.430;2023-07-13T12:58:21;10.93;;;2.95;;
24799;SDS011;12897;50.812;4.430;2023-07-13T13:00:56;9.07;;;3.40;;
24799;SDS011;12897;50.812;4.430;2023-07-13T13:03:29;9.85;;;3.35;;
24799;SDS011;12897;50.812;4.430;2023-07-13T13:06:04;12.05;;;3.98;;
24799;SDS011;12897;50.812;4.430;2023-07-13T13:08:34;8.88;;;3.70;;
24799;SDS011;12897;50.812;4.430;2023-07-13T13:11:02;5.83;;;2.87;;
24799;SDS011;12897;50.812;4.430;2023-07-13T13:13:30;9.45;;;2.98;;
24799;SDS011;12897;50.812;4.430;2023-07-13T13:16:01;7.37;;;2.60;;
24799;SDS011;12897;50.812;4.430;2023-07-13T13:18:31;6.95;;;2.40;;
24799;SDS011;12897;50.812;4.430;2023-07-13T13:21:00;5.47;;;2.25;;
24799;SDS011;12897;50.812;4.430;2023-07-13T13:23:28;3.83;;;2.35;;
24799;SDS011;12897;50.812;4.430;2023-07-13T13:25:56;6.60;;;2.27;;
24799;SDS011;12897;50.812;4.430;2023-07-13T13:28:24;8.10;;;2.37;;
24799;SDS011;12897;50.812;4.430;2023-07-13T13:30:52;5.15;;;2.45;;
24799;SDS011;12897;50.812;4.430;2023-07-13T13:33:21;6.25;;;2.62;;
24799;SDS011;12897;50.812;4.430;2023-07-13T13:35:54;8.58;;;2.72;;
24799;SDS011;12897;50.812;4.430;2023-07-13T13:38:28;5.45;;;2.25;;
24799;SDS011;12897;50.812;4.430;2023-07-13T13:40:53;7.22;;;2.12;;
24799;SDS011;12897;50.812;4.430;2023-07-13T13:43:25;7.53;;;2.60;;
24799;SDS011;12897;50.812;4.430;2023-07-13T13:45:54;6.08;;;2.17;;
24799;SDS011;12897;50.812;4.430;2023-07-13T13:48:33;5.83;;;2.40;;
24799;SDS011;12897;50.812;4.430;2023-07-13T13:51:16;7.10;;;2.45;;
24799;SDS011;12897;50.812;4.430;2023-07-13T13:53:37;5.45;;;2.60;;
24799;SDS011;12897;50.812;4.430;2023-07-13T13:56:07;5.42;;;1.95;;
24799;SDS011;12897;50.812;4.430;2023-07-13T13:58:36;4.72;;;2.00;;
24799;SDS011;12897;50.812;4.430;2023-07-13T14:01:03;5.25;;;2.20;;
24799;SDS011;12897;50.812;4.430;2023-07-13T14:03:35;7.20;;;2.08;;
24799;SDS011;12897;50.812;4.430;2023-07-13T14:06:03;7.37;;;2.17;;
24799;SDS011;12897;50.812;4.430;2023-07-13T14:08:31;4.67;;;2.60;;
24799;SDS011;12897;50.812;4.430;2023-07-13T14:10:58;9.40;;;2.20;;
24799;SDS011;12897;50.812;4.430;2023-07-13T14:13:31;6.62;;;2.17;;
24799;SDS011;12897;50.812;4.430;2023-07-13T14:16:02;6.90;;;2.20;;
24799;SDS011;12897;50.812;4.430;2023-07-13T14:18:33;6.60;;;2.22;;
24799;SDS011;12897;50.812;4.430;2023-07-13T14:21:02;6.22;;;2.08;;
24799;SDS011;12897;50.812;4.430;2023-07-13T14:23:29;5.33;;;2.15;;
24799;SDS011;12897;50.812;4.430;2023-07-13T14:25:58;4.80;;;2.37;;
24799;SDS011;12897;50.812;4.430;2023-07-13T14:28:28;9.90;;;2.45;;
24799;SDS011;12897;50.812;4.430;2023-07-13T14:30:55;7.65;;;1.92;;
24799;SDS011;12897;50.812;4.430;2023-07-13T14:33:26;5.92;;;2.67;;
24799;SDS011;12897;50.812;4.430;2023-07-13T14:35:55;7.85;;;2.70;;
24799;SDS011;12897;50.812;4.430;2023-07-13T14:38:30;8.50;;;2.55;;
24799;SDS011;12897;50.812;4.430;2023-07-13T14:40:58;6.85;;;2.40;;
24799;SDS011;12897;50.812;4.430;2023-07-13T14:43:27;8.18;;;2.08;;
24799;SDS011;12897;50.812;4.430;2023-07-13T14:45:55;5.22;;;2.10;;
24799;SDS011;12897;50.812;4.430;2023-07-13T14:48:23;7.85;;;2.33;;
24799;SDS011;12897;50.812;4.430;2023-07-13T14:50:56;6.55;;;2.42;;
24799;SDS011;12897;50.812;4.430;2023-07-13T14:53:25;8.55;;;2.62;;
24799;SDS011;12897;50.812;4.430;2023-07-13T14:55:55;4.78;;;2.10;;
24799;SDS011;12897;50.812;4.430;2023-07-13T14:58:35;5.05;;;2.83;;
24799;SDS011;12897;50.812;4.430;2023-07-13T15:00:57;5.85;;;2.10;;
24799;SDS011;12897;50.812;4.430;2023-07-13T15:03:25;5.25;;;2.00;;
24799;SDS011;12897;50.812;4.430;2023-07-13T15:05:54;5.42;;;2.17;;
24799;SDS011;12897;50.812;4.430;2023-07-13T15:10:53;7.53;;;2.40;;
24799;SDS011;12897;50.812;4.430;2023-07-13T15:13:33;6.25;;;2.50;;
24799;SDS011;12897;50.812;4.430;2023-07-13T15:16:16;3.50;;;1.90;;
24799;SDS011;12897;50.812;4.430;2023-07-13T15:18:31;6.42;;;2.02;;
24799;SDS011;12897;50.812;4.430;2023-07-13T15:21:02;5.12;;;2.17;;
24799;SDS011;12897;50.812;4.430;2023-07-13T15:23:31;6.28;;;2.20;;
24799;SDS011;12897;50.812;4.430;2023-07-13T15:26:04;7.65;;;2.15;;
24799;SDS011;12897;50.812;4.430;2023-07-13T15:28:31;5.58;;;2.90;;
24799;SDS011;12897;50.812;4.430;2023-07-13T15:31:17;9.40;;;2.55;;
24799;SDS011;12897;50.812;4.430;2023-07-13T15:33:47;5.45;;;2.00;;
24799;SDS011;12897;50.812;4.430;2023-07-13T15:36:26;4.67;;;2.33;;
24799;SDS011;12897;50.812;4.430;2023-07-13T15:38:51;7.03;;;2.47;;
24799;SDS011;12897;50.812;4.430;2023-07-13T15:41:24;8.60;;;2.12;;
24799;SDS011;12897;50.812;4.430;2023-07-13T15:43:54;8.18;;;2.10;;
24799;SDS011;12897;50.812;4.430;2023-07-13T15:46:26;4.70;;;2.02;;
24799;SDS011;12897;50.812;4.430;2023-07-13T15:48:57;7.70;;;2.42;;
24799;SDS011;12897;50.812;4.430;2023-07-13T15:51:28;6.67;;;2.25;;
24799;SDS011;12897;50.812;4.430;2023-07-13T15:54:04;7.92;;;2.20;;
24799;SDS011;12897;50.812;4.430;2023-07-13T15:56:34;13.48;;;2.00;;
24799;SDS011;12897;50.812;4.430;2023-07-13T15:59:05;7.90;;;2.35;;
24799;SDS011;12897;50.812;4.430;2023-07-13T16:01:38;7.10;;;2.35;;
24799;SDS011;12897;50.812;4.430;2023-07-13T16:06:35;4.65;;;2.12;;
24799;SDS011;12897;50.812;4.430;2023-07-13T16:09:07;10.53;;;3.58;;
24799;SDS011;12897;50.812;4.430;2023-07-13T16:11:43;5.05;;;2.20;;
24799;SDS011;12897;50.812;4.430;2023-07-13T16:14:12;8.08;;;2.27;;
24799;SDS011;12897;50.812;4.430;2023-07-13T16:16:42;9.40;;;2.62;;
24799;SDS011;12897;50.812;4.430;2023-07-13T16:21:43;6.95;;;2.72;;
24799;SDS011;12897;50.812;4.430;2023-07-13T16:24:18;7.72;;;2.55;;
24799;SDS011;12897;50.812;4.430;2023-07-13T16:26:48;7.65;;;2.22;;
24799;SDS011;12897;50.812;4.430;2023-07-13T16:29:22;4.35;;;2.37;;
24799;SDS011;12897;50.812;4.430;2023-07-13T16:32:04;4.97;;;2.22;;
24799;SDS011;12897;50.812;4.430;2023-07-13T16:34:40;10.50;;;2.17;;
24799;SDS011;12897;50.812;4.430;2023-07-13T16:37:21;7.03;;;2.55;;
24799;SDS011;12897;50.812;4.430;2023-07-13T16:39:50;5.33;;;2.52;;
24799;SDS011;12897;50.812;4.430;2023-07-13T16:42:21;7.08;;;2.42;;
24799;SDS011;12897;50.812;4.430;2023-07-13T16:44:50;11.00;;;2.65;;
24799;SDS011;12897;50.812;4.430;2023-07-13T16:47:24;6.20;;;2.42;;
24799;SDS011;12897;50.812;4.430;2023-07-13T16:49:50;3.52;;;2.12;;
24799;SDS011;12897;50.812;4.430;2023-07-13T16:52:20;7.15;;;2.15;;
24799;SDS011;12897;50.812;4.430;2023-07-13T16:54:48;5.67;;;2.22;;
24799;SDS011;12897;50.812;4.430;2023-07-13T16:57:19;5.25;;;2.35;;
24799;SDS011;12897;50.812;4.430;2023-07-13T16:59:51;4.80;;;2.67;;
24799;SDS011;12897;50.812;4.430;2023-07-13T17:02:37;11.05;;;2.72;;
24799;SDS011;12897;50.812;4.430;2023-07-13T17:04:53;7.47;;;2.40;;
24799;SDS011;12897;50.812;4.430;2023-07-13T17:07:21;6.90;;;2.55;;
24799;SDS011;12897;50.812;4.430;2023-07-13T17:09:50;5.53;;;2.10;;
24799;SDS011;12897;50.812;4.430;2023-07-13T17:12:19;6.45;;;2.87;;
24799;SDS011;12897;50.812;4.430;2023-07-13T17:14:47;6.40;;;2.30;;
24799;SDS011;12897;50.812;4.430;2023-07-13T17:17:16;5.87;;;2.65;;
24799;SDS011;12897;50.812;4.430;2023-07-13T17:19:47;4.45;;;1.92;;
24799;SDS011;12897;50.812;4.430;2023-07-13T17:22:18;6.50;;;2.02;;
24799;SDS011;12897;50.812;4.430;2023-07-13T17:24:46;4.45;;;1.98;;
24799;SDS011;12897;50.812;4.430;2023-07-13T17:27:16;6.60;;;2.12;;
24799;SDS011;12897;50.812;4.430;2023-07-13T17:29:46;3.98;;;2.42;;
24799;SDS011;12897;50.812;4.430;2023-07-13T17:32:18;5.80;;;2.00;;
24799;SDS011;12897;50.812;4.430;2023-07-13T17:34:50;5.35;;;2.45;;
24799;SDS011;12897;50.812;4.430;2023-07-13T17:37:18;5.92;;;2.67;;
24799;SDS011;12897;50.812;4.430;2023-07-13T17:39:46;4.97;;;2.40;;
24799;SDS011;12897;50.812;4.430;2023-07-13T17:42:14;8.93;;;2.20;;
24799;SDS011;12897;50.812;4.430;2023-07-13T17:44:41;6.72;;;3.02;;
24799;SDS011;12897;50.812;4.430;2023-07-13T17:47:21;7.15;;;2.72;;
24799;SDS011;12897;50.812;4.430;2023-07-13T17:49:53;4.83;;;2.58;;
24799;SDS011;12897;50.812;4.430;2023-07-13T17:52:26;6.87;;;2.80;;
24799;SDS011;12897;50.812;4.430;2023-07-13T17:54:53;6.58;;;2.50;;
24799;SDS011;12897;50.812;4.430;2023-07-13T17:57:21;7.42;;;2.67;;
24799;SDS011;12897;50.812;4.430;2023-07-13T17:59:49;8.50;;;2.95;;
24799;SDS011;12897;50.812;4.430;2023-07-13T18:02:20;5.05;;;2.33;;
24799;SDS011;12897;50.812;4.430;2023-07-13T18:04:49;6.65;;;2.60;;
24799;SDS011;12897;50.812;4.430;2023-07-13T18:07:19;11.65;;;5.85;;
24799;SDS011;12897;50.812;4.430;2023-07-13T18:09:48;8.90;;;2.10;;
24799;SDS011;12897;50.812;4.430;2023-07-13T18:12:21;5.65;;;2.20;;
24799;SDS011;12897;50.812;4.430;2023-07-13T18:14:53;6.72;;;2.50;;
24799;SDS011;12897;50.812;4.430;2023-07-13T18:17:19;7.92;;;2.65;;
24799;SDS011;12897;50.812;4.430;2023-07-13T18:19:46;6.62;;;2.83;;
24799;SDS011;12897;50.812;4.430;2023-07-13T18:22:16;4.55;;;2.37;;
24799;SDS011;12897;50.812;4.430;2023-07-13T18:24:44;9.25;;;2.27;;
24799;SDS011;12897;50.812;4.430;2023-07-13T18:27:12;7.53;;;2.58;;
24799;SDS011;12897;50.812;4.430;2023-07-13T18:29:40;5.35;;;3.00;;
24799;SDS011;12897;50.812;4.430;2023-07-13T18:32:13;4.00;;;2.00;;
24799;SDS011;12897;50.812;4.430;2023-07-13T18:34:44;4.10;;;2.02;;
24799;SDS011;12897;50.812;4.430;2023-07-13T18:37:15;5.78;;;2.27;;
24799;SDS011;12897;50.812;4.430;2023-07-13T18:39:51;5.25;;;2.58;;
24799;SDS011;12897;50.812;4.430;2023-07-13T18:42:25;3.87;;;2.30;;
24799;SDS011;12897;50.812;4.430;2023-07-13T18:44:56;9.15;;;2.12;;
24799;SDS011;12897;50.812;4.430;2023-07-13T18:47:25;8.03;;;2.55;;
24799;SDS011;12897;50.812;4.430;2023-07-13T18:49:55;5.78;;;2.35;;
24799;SDS011;12897;50.812;4.430;2023-07-13T18:54:52;8.98;;;2.30;;
24799;SDS011;12897;50.812;4.430;2023-07-13T18:57:24;4.75;;;1.98;;
24799;SDS011;12897;50.812;4.430;2023-07-13T18:59:53;5.37;;;2.12;;
24799;SDS011;12897;50.812;4.430;2023-07-13T19:02:22;6.08;;;2.85;;
24799;SDS011;12897;50.812;4.430;2023-07-13T19:04:49;4.25;;;1.90;;
24799;SDS011;12897;50.812;4.430;2023-07-13T19:07:18;2.83;;;2.10;;
24799;SDS011;12897;50.812;4.430;2023-07-13T19:09:50;6.03;;;1.75;;
24799;SDS011;12897;50.812;4.430;2023-07-13T19:12:22;5.08;;;2.62;;
24799;SDS011;12897;50.812;4.430;2023-07-13T19:14:53;6.72;;;2.20;;
24799;SDS011;12897;50.812;4.430;2023-07-13T19:17:21;4.55;;;2.02;;
24799;SDS011;12897;50.812;4.430;2023-07-13T19:19:49;7.30;;;2.27;;
24799;SDS011;12897;50.812;4.430;2023-07-13T19:22:17;6.08;;;2.40;;
24799;SDS011;12897;50.812;4.430;2023-07-13T19:24:46;3.35;;;1.50;;
24799;SDS011;12897;50.812;4.430;2023-07-13T19:27:15;6.97;;;2.00;;
24799;SDS011;12897;50.812;4.430;2023-07-13T19:29:43;6.30;;;1.98;;
24799;SDS011;12897;50.812;4.430;2023-07-13T19:32:13;7.03;;;1.80;;
24799;SDS011;12897;50.812;4.430;2023-07-13T19:34:41;5.22;;;1.52;;
24799;SDS011;12897;50.812;4.430;2023-07-13T19:37:17;7.55;;;2.10;;
24799;SDS011;12897;50.812;4.430;2023-07-13T19:39:47;7.08;;;2.10;;
24799;SDS011;12897;50.812;4.430;2023-07-13T19:42:18;7.60;;;2.20;;
24799;SDS011;12897;50.812;4.430;2023-07-13T19:44:48;5.65;;;2.42;;
24799;SDS011;12897;50.812;4.430;2023-07-13T19:47:17;5.70;;;1.87;;
24799;SDS011;12897;50.812;4.430;2023-07-13T19:49:46;6.78;;;2.05;;
24799;SDS011;12897;50.812;4.430;2023-07-13T19:52:16;7.50;;;2.33;;
24799;SDS011;12897;50.812;4.430;2023-07-13T19:54:51;4.83;;;1.80;;
24799;SDS011;12897;50.812;4.430;2023-07-13T19:57:21;6.70;;;2.10;;
24799;SDS011;12897;50.812;4.430;2023-07-13T19:59:51;5.22;;;2.33;;
24799;SDS011;12897;50.812;4.430;2023-07-13T20:02:24;4.25;;;1.67;;
24799;SDS011;12897;50.812;4.430;2023-07-13T20:04:52;5.83;;;1.70;;
24799;SDS011;12897;50.812;4.430;2023-07-13T20:07:20;7.62;;;2.00;;
24799;SDS011;12897;50.812;4.430;2023-07-13T20:09:51;7.22;;;1.75;;
24799;SDS011;12897;50.812;4.430;2023-07-13T20:12:21;3.27;;;1.65;;
24799;SDS011;12897;50.812;4.430;2023-07-13T20:14:52;6.17;;;1.80;;
24799;SDS011;12897;50.812;4.430;2023-07-13T20:17:33;4.35;;;1.60;;
24799;SDS011;12897;50.812;4.430;2023-07-13T20:20:17;7.17;;;1.82;;
24799;SDS011;12897;50.812;4.430;2023-07-13T20:22:49;4.95;;;1.67;;
24799;SDS011;12897;50.812;4.430;2023-07-13T20:25:22;6.22;;;1.70;;
24799;SDS011;12897;50.812;4.430;2023-07-13T20:27:49;7.42;;;2.00;;
24799;SDS011;12897;50.812;4.430;2023-07-13T20:30:18;4.67;;;2.02;;
24799;SDS011;12897;50.812;4.430;2023-07-13T20:32:45;8.30;;;1.87;;
24799;SDS011;12897;50.812;4.430;2023-07-13T20:37:51;6.87;;;2.00;;
24799;SDS011;12897;50.812;4.430;2023-07-13T20:40:21;8.35;;;2.05;;
24799;SDS011;12897;50.812;4.430;2023-07-13T20:42:50;7.17;;;1.80;;
24799;SDS011;12897;50.812;4.430;2023-07-13T20:45:18;6.35;;;2.08;;
24799;SDS011;12897;50.812;4.430;2023-07-13T20:47:47;6.67;;;1.77;;
24799;SDS011;12897;50.812;4.430;2023-07-13T20:52:48;10.30;;;2.00;;
24799;SDS011;12897;50.812;4.430;2023-07-13T20:55:16;4.70;;;2.17;;
24799;SDS011;12897;50.812;4.430;2023-07-13T20:57:50;3.85;;;1.90;;
24799;SDS011;12897;50.812;4.430;2023-07-13T21:00:23;5.83;;;2.40;;
24799;SDS011;12897;50.812;4.430;2023-07-13T21:02:50;4.72;;;1.57;;
24799;SDS011;12897;50.812;4.430;2023-07-13T21:05:23;6.35;;;1.80;;
24799;SDS011;12897;50.812;4.430;2023-07-13T21:07:52;4.95;;;2.17;;
24799;SDS011;12897;50.812;4.430;2023-07-13T21:10:21;6.08;;;2.05;;
24799;SDS011;12897;50.812;4.430;2023-07-13T21:15:18;5.97;;;2.27;;
24799;SDS011;12897;50.812;4.430;2023-07-13T21:17:52;7.78;;;2.30;;
24799;SDS011;12897;50.812;4.430;2023-07-13T21:20:28;14.83;;;2.27;;
24799;SDS011;12897;50.812;4.430;2023-07-13T21:22:55;6.42;;;2.30;;
24799;SDS011;12897;50.812;4.430;2023-07-13T21:25:29;7.35;;;2.40;;
24799;SDS011;12897;50.812;4.430;2023-07-13T21:27:59;3.25;;;2.02;;
24799;SDS011;12897;50.812;4.430;2023-07-13T21:30:32;6.72;;;1.85;;
24799;SDS011;12897;50.812;4.430;2023-07-13T21:33:03;4.40;;;2.10;;
24799;SDS011;12897;50.812;4.430;2023-07-13T21:35:31;7.87;;;1.92;;
24799;SDS011;12897;50.812;4.430;2023-07-13T21:38:04;5.72;;;2.17;;
24799;SDS011;12897;50.812;4.430;2023-07-13T21:40:43;3.87;;;2.00;;
24799;SDS011;12897;50.812;4.430;2023-07-13T21:43:12;8.63;;;1.70;;
24799;SDS011;12897;50.812;4.430;2023-07-13T21:45:42;6.58;;;2.52;;
24799;SDS011;12897;50.812;4.430;2023-07-13T21:48:11;5.60;;;2.02;;
24799;SDS011;12897;50.812;4.430;2023-07-13T21:50:44;6.28;;;2.15;;
24799;SDS011;12897;50.812;4.430;2023-07-13T21:55:56;10.85;;;2.00;;
24799;SDS011;12897;50.812;4.430;2023-07-13T21:58:31;8.08;;;2.10;;
24799;SDS011;12897;50.812;4.430;2023-07-13T22:00:59;4.72;;;2.20;;
24799;SDS011;12897;50.812;4.430;2023-07-13T22:03:30;6.78;;;2.22;;